createdAt,value
2023-02-03T00:00:52.340Z,1009.2
2023-02-03T00:02:08.632Z,1009.1
2023-02-03T00:03:24.935Z,1009.1
2023-02-03T00:04:41.224Z,1009
2023-02-03T00:05:57.508Z,1009
2023-02-03T00:07:13.798Z,1008.9
2023-02-03T00:08:30.097Z,1008.9
2023-02-03T00:09:46.395Z,1008.9
2023-02-03T00:11:01.712Z,1008.9
2023-02-03T00:12:17.997Z,1008.9
2023-02-03T00:13:34.295Z,1008.9
2023-02-03T00:14:50.581Z,1008.9
2023-02-03T00:16:06.872Z,1008.9
2023-02-03T00:17:23.176Z,1008.9
2023-02-03T00:18:39.453Z,1008.8
2023-02-03T00:19:55.762Z,1008.8
2023-02-03T00:21:12.056Z,1008.8
2023-02-03T00:22:28.338Z,1008.7
2023-02-03T00:23:44.631Z,1008.6
2023-02-03T00:25:00.932Z,1008.6
2023-02-03T00:26:17.225Z,1008.6
2023-02-03T00:27:32.527Z,1008.5
2023-02-03T00:28:48.831Z,1008.5
2023-02-03T00:30:05.115Z,1008.4
2023-02-03T00:31:21.414Z,1008.4
2023-02-03T00:32:37.711Z,1008.3
2023-02-03T00:33:54.002Z,1008.3
2023-02-03T00:35:10.299Z,1008.3
2023-02-03T00:37:42.884Z,1008.2
2023-02-03T00:38:59.164Z,1008.1
2023-02-03T00:40:15.458Z,1008.1
2023-02-03T00:41:31.745Z,1008
2023-02-03T00:42:48.058Z,1008
2023-02-03T00:44:03.349Z,1008
2023-02-03T00:45:19.644Z,1008
2023-02-03T00:46:35.946Z,1008
2023-02-03T00:47:52.235Z,1007.9
2023-02-03T00:49:08.529Z,1007.9
2023-02-03T00:50:24.831Z,1007.8
2023-02-03T00:51:41.108Z,1007.8
2023-02-03T00:52:57.420Z,1007.8
2023-02-03T00:54:13.706Z,1007.8
2023-02-03T00:55:29.997Z,1007.8
2023-02-03T00:56:46.286Z,1007.7
2023-02-03T00:58:02.576Z,1007.7
2023-02-03T00:59:18.870Z,1007.7
2023-02-03T01:00:34.191Z,1007.6
2023-02-03T01:01:50.488Z,1007.6
2023-02-03T01:03:06.774Z,1007.6
2023-02-03T01:04:23.068Z,1007.6
2023-02-03T01:05:39.367Z,1007.6
2023-02-03T01:06:55.642Z,1007.5
2023-02-03T01:08:11.942Z,1007.5
2023-02-03T01:09:28.238Z,1007.5
2023-02-03T01:10:44.536Z,1007.5
2023-02-03T01:12:00.823Z,1007.5
2023-02-03T01:13:17.120Z,1007.4
2023-02-03T01:14:33.411Z,1007.4
2023-02-03T01:15:49.713Z,1007.5
2023-02-03T01:17:05.011Z,1007.5
2023-02-03T01:18:21.317Z,1007.5
2023-02-03T01:19:37.611Z,1007.3
2023-02-03T01:20:53.884Z,1007.4
2023-02-03T01:22:10.000Z,1007.3
2023-02-03T01:23:26.484Z,1007.3
2023-02-03T01:24:42.775Z,1007.3
2023-02-03T01:25:59.069Z,1007.3
2023-02-03T01:28:31.647Z,1007.2
2023-02-03T01:29:47.945Z,1007.2
2023-02-03T01:31:04.250Z,1007.2
2023-02-03T01:32:20.526Z,1007.2
2023-02-03T01:33:35.838Z,1007.2
2023-02-03T01:34:52.141Z,1007.2
2023-02-03T01:36:08.427Z,1007.1
2023-02-03T01:37:24.726Z,1007.1
2023-02-03T01:38:41.021Z,1007.1
2023-02-03T01:39:57.301Z,1007.1
2023-02-03T01:41:13.605Z,1006.9
2023-02-03T01:42:29.905Z,1006.8
2023-02-03T01:43:46.180Z,1006.8
2023-02-03T01:45:02.491Z,1006.8
2023-02-03T01:46:18.765Z,1006.8
2023-02-03T01:47:35.072Z,1006.8
2023-02-03T01:48:51.359Z,1006.8
2023-02-03T01:50:06.665Z,1006.8
2023-02-03T01:51:22.971Z,1006.9
2023-02-03T01:52:39.248Z,1006.9
2023-02-03T01:53:55.560Z,1006.9
2023-02-03T01:55:11.849Z,1006.9
2023-02-03T01:56:28.128Z,1006.8
2023-02-03T01:57:44.428Z,1006.7
2023-02-03T01:59:00.727Z,1006.8
2023-02-03T02:00:17.016Z,1006.8
2023-02-03T02:01:33.316Z,1006.8
2023-02-03T02:02:49.606Z,1006.7
2023-02-03T02:04:05.890Z,1006.8
2023-02-03T02:05:22.189Z,1006.7
2023-02-03T02:06:37.496Z,1006.7
2023-02-03T02:07:53.788Z,1006.6
2023-02-03T02:09:10.078Z,1006.6
2023-02-03T02:10:26.371Z,1006.5
2023-02-03T02:11:42.681Z,1006.5
2023-02-03T02:12:58.976Z,1006.5
2023-02-03T02:14:15.267Z,1006.6
2023-02-03T02:15:31.561Z,1006.6
2023-02-03T02:16:47.848Z,1006.5
2023-02-03T02:18:04.137Z,1006.5
2023-02-03T02:19:20.439Z,1006.5
2023-02-03T02:20:36.733Z,1006.4
2023-02-03T02:21:53.009Z,1006.4
2023-02-03T02:23:08.324Z,1006.3
2023-02-03T02:24:24.630Z,1006.3
2023-02-03T02:25:40.914Z,1006.3
2023-02-03T02:26:57.202Z,1006.2
2023-02-03T02:28:13.509Z,1006.3
2023-02-03T02:29:29.792Z,1006.2
2023-02-03T02:30:46.084Z,1006.2
2023-02-03T02:32:02.383Z,1006.1
2023-02-03T02:33:18.680Z,1006.1
2023-02-03T02:34:34.977Z,1006.1
2023-02-03T02:35:51.265Z,1006.1
2023-02-03T02:37:07.546Z,1005.9
2023-02-03T02:38:23.852Z,1006
2023-02-03T02:39:39.160Z,1005.9
2023-02-03T02:40:55.459Z,1005.9
2023-02-03T02:42:11.741Z,1006
2023-02-03T02:43:28.045Z,1005.9
2023-02-03T02:44:44.327Z,1006
2023-02-03T02:46:00.627Z,1006
2023-02-03T02:47:16.906Z,1005.9
2023-02-03T02:48:33.206Z,1005.8
2023-02-03T02:49:49.511Z,1005.8
2023-02-03T02:51:05.798Z,1005.7
2023-02-03T02:52:22.086Z,1005.7
2023-02-03T02:53:38.386Z,1005.8
2023-02-03T02:56:10.961Z,1005.9
2023-02-03T02:57:26.272Z,1005.8
2023-02-03T02:58:42.566Z,1005.8
2023-02-03T02:59:58.861Z,1005.7
2023-02-03T03:01:15.154Z,1005.7
2023-02-03T03:02:31.457Z,1005.7
2023-02-03T03:03:47.734Z,1005.6
2023-02-03T03:05:04.043Z,1005.6
2023-02-03T03:06:20.335Z,1005.6
2023-02-03T03:07:36.633Z,1005.7
2023-02-03T03:08:52.910Z,1005.6
2023-02-03T03:10:09.214Z,1005.6
2023-02-03T03:11:25.494Z,1005.5
2023-02-03T03:12:41.796Z,1005.5
2023-02-03T03:13:57.115Z,1005.5
2023-02-03T03:15:13.397Z,1005.6
2023-02-03T03:16:29.688Z,1005.5
2023-02-03T03:17:45.982Z,1005.4
2023-02-03T03:19:02.276Z,1005.5
2023-02-03T03:20:18.572Z,1005.5
2023-02-03T03:21:34.865Z,1005.4
2023-02-03T03:22:51.149Z,1005.4
2023-02-03T03:24:07.444Z,1005.4
2023-02-03T03:25:23.736Z,1005.4
2023-02-03T03:26:40.048Z,1005.4
2023-02-03T03:27:56.328Z,1005.4
2023-02-03T03:29:12.620Z,1005.4
2023-02-03T03:30:27.924Z,1005.4
2023-02-03T03:31:44.230Z,1005.4
2023-02-03T03:33:00.513Z,1005.5
2023-02-03T03:34:16.815Z,1005.4
2023-02-03T03:35:33.108Z,1005.4
2023-02-03T03:36:48.430Z,1005.3
2023-02-03T03:38:04.703Z,1005.4
2023-02-03T03:39:21.010Z,1005.4
2023-02-03T03:40:37.299Z,1005.4
2023-02-03T03:41:53.600Z,1005.4
2023-02-03T03:43:09.890Z,1005.4
2023-02-03T03:44:26.179Z,1005.3
2023-02-03T03:45:42.479Z,1005.2
2023-02-03T03:46:58.763Z,1005.2
2023-02-03T03:48:15.064Z,1005.2
2023-02-03T03:49:31.345Z,1005.2
2023-02-03T03:50:47.636Z,1005
2023-02-03T03:52:03.930Z,1005
2023-02-03T03:53:19.248Z,1004.9
2023-02-03T03:54:35.539Z,1004.9
2023-02-03T03:55:51.830Z,1004.8
2023-02-03T03:57:08.126Z,1004.8
2023-02-03T03:58:24.423Z,1004.8
2023-02-03T03:59:40.712Z,1004.8
2023-02-03T04:00:57.010Z,1004.8
2023-02-03T04:02:13.291Z,1004.6
2023-02-03T04:03:29.591Z,1004.6
2023-02-03T04:04:45.877Z,1004.5
2023-02-03T04:06:02.172Z,1004.5
2023-02-03T04:07:18.480Z,1004.5
2023-02-03T04:08:34.764Z,1004.6
2023-02-03T04:09:50.078Z,1004.6
2023-02-03T04:11:06.376Z,1004.7
2023-02-03T04:12:22.670Z,1004.8
2023-02-03T04:13:38.964Z,1004.8
2023-02-03T04:14:55.256Z,1004.9
2023-02-03T04:16:11.535Z,1005
2023-02-03T04:17:27.840Z,1004.9
2023-02-03T04:18:44.122Z,1004.9
2023-02-03T04:20:00.426Z,1004.9
2023-02-03T04:21:16.709Z,1004.9
2023-02-03T04:22:32.998Z,1005
2023-02-03T04:23:49.289Z,1005.1
2023-02-03T04:25:05.583Z,1005.1
2023-02-03T04:26:20.890Z,1005.1
2023-02-03T04:27:37.185Z,1005.1
2023-02-03T04:28:53.492Z,1005.1
2023-02-03T04:30:09.782Z,1005.1
2023-02-03T04:31:26.069Z,1005
2023-02-03T04:32:42.370Z,1005.1
2023-02-03T04:33:58.666Z,1004.9
2023-02-03T04:35:14.960Z,1004.9
2023-02-03T04:36:31.241Z,1004.9
2023-02-03T04:37:47.547Z,1004.9
2023-02-03T04:39:03.824Z,1004.9
2023-02-03T04:40:20.118Z,1005
2023-02-03T04:41:36.427Z,1005
2023-02-03T04:42:51.719Z,1005
2023-02-03T04:44:08.010Z,1005
2023-02-03T04:45:24.323Z,1004.8
2023-02-03T04:46:40.604Z,1004.7
2023-02-03T04:47:56.900Z,1004.7
2023-02-03T04:49:13.196Z,1004.8
2023-02-03T04:50:29.495Z,1004.8
2023-02-03T04:51:45.783Z,1004.7
2023-02-03T04:53:02.070Z,1004.7
2023-02-03T04:54:18.366Z,1004.7
2023-02-03T04:55:34.651Z,1004.7
2023-02-03T04:56:50.949Z,1004.6
2023-02-03T04:58:07.244Z,1004.6
2023-02-03T04:59:22.549Z,1004.5
2023-02-03T05:00:38.842Z,1004.5
2023-02-03T05:01:55.141Z,1004.5
2023-02-03T05:03:11.426Z,1004.4
2023-02-03T05:04:27.718Z,1004.4
2023-02-03T05:05:44.012Z,1004.3
2023-02-03T05:07:00.317Z,1004.4
2023-02-03T05:08:16.609Z,1004.4
2023-02-03T05:09:32.907Z,1004.3
2023-02-03T05:10:49.193Z,1004.3
2023-02-03T05:12:05.492Z,1004.2
2023-02-03T05:13:21.771Z,1004.3
2023-02-03T05:14:38.064Z,1004.2
2023-02-03T05:15:53.372Z,1004.2
2023-02-03T05:17:09.666Z,1004.1
2023-02-03T05:18:25.969Z,1004.1
2023-02-03T05:19:42.267Z,1004
2023-02-03T05:20:58.541Z,1003.9
2023-02-03T05:22:14.838Z,1003.9
2023-02-03T05:23:31.131Z,1003.9
2023-02-03T05:24:47.439Z,1003.9
2023-02-03T05:26:03.732Z,1003.9
2023-02-03T05:27:20.018Z,1004
2023-02-03T05:28:36.314Z,1004
2023-02-03T05:29:52.603Z,1004
2023-02-03T05:31:08.885Z,1004
2023-02-03T05:32:24.207Z,1004
2023-02-03T05:33:40.503Z,1004
2023-02-03T05:36:13.080Z,1004
2023-02-03T05:37:29.384Z,1004.1
2023-02-03T05:38:45.668Z,1004
2023-02-03T05:40:01.956Z,1004.1
2023-02-03T05:41:18.249Z,1004.1
2023-02-03T05:42:34.548Z,1004
2023-02-03T05:43:50.850Z,1004.1
2023-02-03T05:45:07.136Z,1004
2023-02-03T05:46:23.423Z,1004.1
2023-02-03T05:47:39.713Z,1004
2023-02-03T05:48:55.028Z,1004.1
2023-02-03T05:50:11.316Z,1004.1
2023-02-03T05:51:27.606Z,1004
2023-02-03T05:52:43.917Z,1003.9
2023-02-03T05:54:00.199Z,1004
2023-02-03T05:55:16.496Z,1003.9
2023-02-03T05:56:32.797Z,1003.9
2023-02-03T05:57:49.088Z,1003.8
2023-02-03T05:59:05.378Z,1003.9
2023-02-03T06:00:21.677Z,1003.8
2023-02-03T06:01:37.968Z,1003.9
2023-02-03T06:02:54.247Z,1003.8
2023-02-03T06:04:10.556Z,1003.8
2023-02-03T06:05:25.863Z,1003.9
2023-02-03T06:06:42.142Z,1003.8
2023-02-03T06:07:58.448Z,1003.8
2023-02-03T06:09:14.737Z,1003.8
2023-02-03T06:10:31.029Z,1003.8
2023-02-03T06:11:47.313Z,1003.8
2023-02-03T06:13:03.619Z,1003.8
2023-02-03T06:14:19.898Z,1003.8
2023-02-03T06:15:36.190Z,1003.7
2023-02-03T06:16:52.485Z,1003.7
2023-02-03T06:18:08.775Z,1003.6
2023-02-03T06:19:25.079Z,1003.7
2023-02-03T06:20:41.376Z,1003.6
2023-02-03T06:21:56.000Z,1003.7
2023-02-03T06:23:12.967Z,1003.6
2023-02-03T06:24:29.272Z,1003.6
2023-02-03T06:25:45.560Z,1003.6
2023-02-03T06:27:01.810Z,1003.5
2023-02-03T06:28:18.041Z,1003.6
2023-02-03T06:29:34.292Z,1003.6
2023-02-03T06:30:50.525Z,1003.6
2023-02-03T06:32:06.768Z,1003.4
2023-02-03T06:33:23.004Z,1003.6
2023-02-03T06:34:39.265Z,1003.5
2023-02-03T06:35:55.498Z,1003.6
2023-02-03T06:37:11.737Z,1003.5
2023-02-03T06:38:26.987Z,1003.5
2023-02-03T06:39:43.234Z,1003.4
2023-02-03T06:40:59.471Z,1003.4
2023-02-03T06:42:15.704Z,1003.4
2023-02-03T06:43:31.955Z,1003.3
2023-02-03T06:44:48.190Z,1003.3
2023-02-03T06:46:04.418Z,1003.3
2023-02-03T06:47:20.668Z,1003.3
2023-02-03T06:48:36.912Z,1003.2
2023-02-03T06:49:53.139Z,1003.2
2023-02-03T06:51:09.382Z,1003.2
2023-02-03T06:52:25.624Z,1003
2023-02-03T06:53:41.849Z,1003
2023-02-03T06:54:57.117Z,1002.9
2023-02-03T06:56:13.357Z,1003
2023-02-03T06:57:29.588Z,1003
2023-02-03T06:58:45.841Z,1003
2023-02-03T07:00:02.075Z,1003
2023-02-03T07:01:18.315Z,1003
2023-02-03T07:02:34.539Z,1003.1
2023-02-03T07:03:50.781Z,1002.9
2023-02-03T07:05:07.019Z,1003
2023-02-03T07:06:23.263Z,1003
2023-02-03T07:07:39.507Z,1003
2023-02-03T07:08:55.735Z,1003
2023-02-03T07:10:11.988Z,1002.9
2023-02-03T07:11:27.242Z,1003
2023-02-03T07:12:43.483Z,1002.9
2023-02-03T07:13:59.713Z,1002.9
2023-02-03T07:15:15.961Z,1002.8
2023-02-03T07:16:32.197Z,1002.7
2023-02-03T07:17:48.422Z,1002.7
2023-02-03T07:19:04.669Z,1002.7
2023-02-03T07:21:37.148Z,1002.7
2023-02-03T07:22:53.377Z,1002.6
2023-02-03T07:24:09.634Z,1002.6
2023-02-03T07:25:25.863Z,1002.7
2023-02-03T07:26:42.098Z,1002.6
2023-02-03T07:27:57.354Z,1002.7
2023-02-03T07:29:13.593Z,1002.8
2023-02-03T07:30:29.838Z,1002.6
2023-02-03T07:31:46.083Z,1002.7
2023-02-03T07:33:02.321Z,1002.7
2023-02-03T07:34:18.547Z,1002.8
2023-02-03T07:35:34.785Z,1002.8
2023-02-03T07:36:51.028Z,1002.7
2023-02-03T07:38:07.279Z,1002.7
2023-02-03T07:39:23.508Z,1002.6
2023-02-03T07:40:39.746Z,1002.6
2023-02-03T07:41:55.998Z,1002.5
2023-02-03T07:43:12.239Z,1002.6
2023-02-03T07:44:27.493Z,1002.6
2023-02-03T07:45:43.730Z,1002.6
2023-02-03T07:46:59.957Z,1002.6
2023-02-03T07:48:16.193Z,1002.6
2023-02-03T07:49:32.432Z,1002.6
2023-02-03T07:50:48.687Z,1002.6
2023-02-03T07:52:03.930Z,1002.6
2023-02-03T07:53:20.177Z,1002.6
2023-02-03T07:54:36.415Z,1002.5
2023-02-03T07:55:52.666Z,1002.5
2023-02-03T07:57:08.891Z,1002.5
2023-02-03T07:58:25.138Z,1002.6
2023-02-03T07:59:41.378Z,1002.6
2023-02-03T08:00:57.621Z,1002.5
2023-02-03T08:02:13.851Z,1002.5
2023-02-03T08:03:30.083Z,1002.5
2023-02-03T08:04:46.321Z,1002.5
2023-02-03T08:06:02.565Z,1002.4
2023-02-03T08:07:18.814Z,1002.4
2023-02-03T08:08:34.068Z,1002.3
2023-02-03T08:09:50.307Z,1002.3
2023-02-03T08:11:06.536Z,1002.2
2023-02-03T08:12:22.773Z,1002.2
2023-02-03T08:13:39.015Z,1002.2
2023-02-03T08:14:55.267Z,1002.2
2023-02-03T08:16:11.495Z,1002.2
2023-02-03T08:17:27.737Z,1002.2
2023-02-03T08:18:43.976Z,1002.1
2023-02-03T08:20:00.212Z,1002.1
2023-02-03T08:21:16.456Z,1002.1
2023-02-03T08:22:32.000Z,1002.1
2023-02-03T08:23:48.936Z,1002.1
2023-02-03T08:25:04.186Z,1002.1
2023-02-03T08:26:20.417Z,1002
2023-02-03T08:27:36.672Z,1002
2023-02-03T08:28:52.909Z,1002
2023-02-03T08:30:09.139Z,1002
2023-02-03T08:31:25.379Z,1002
2023-02-03T08:32:41.612Z,1002
2023-02-03T08:33:57.867Z,1002
2023-02-03T08:35:14.101Z,1002
2023-02-03T08:36:30.328Z,1002.1
2023-02-03T08:37:46.583Z,1002
2023-02-03T08:39:02.819Z,1002
2023-02-03T08:40:19.060Z,1002
2023-02-03T08:41:34.310Z,1002
2023-02-03T08:42:50.539Z,1001.9
2023-02-03T08:44:06.782Z,1001.9
2023-02-03T08:45:23.027Z,1001.9
2023-02-03T08:46:39.254Z,1001.8
2023-02-03T08:47:55.514Z,1001.9
2023-02-03T08:49:11.749Z,1001.7
2023-02-03T08:50:27.977Z,1001.7
2023-02-03T08:51:44.218Z,1001.6
2023-02-03T08:53:00.465Z,1001.6
2023-02-03T08:54:16.693Z,1001.5
2023-02-03T08:55:32.937Z,1001.6
2023-02-03T08:56:49.171Z,1001.6
2023-02-03T08:58:04.437Z,1001.7
2023-02-03T08:59:20.670Z,1001.6
2023-02-03T09:00:36.914Z,1001.5
2023-02-03T09:01:53.148Z,1001.5
2023-02-03T09:03:09.394Z,1001.5
2023-02-03T09:04:25.618Z,1001.5
2023-02-03T09:05:41.863Z,1001.5
2023-02-03T09:06:58.105Z,1001.4
2023-02-03T09:08:14.346Z,1001.5
2023-02-03T09:09:30.583Z,1001.4
2023-02-03T09:10:46.830Z,1001.4
2023-02-03T09:12:03.073Z,1001.4
2023-02-03T09:13:19.307Z,1001.5
2023-02-03T09:14:34.561Z,1001.5
2023-02-03T09:15:50.785Z,1001.5
2023-02-03T09:17:07.037Z,1001.5
2023-02-03T09:18:23.282Z,1001.4
2023-02-03T09:19:39.516Z,1001.4
2023-02-03T09:20:55.757Z,1001.4
2023-02-03T09:22:11.993Z,1001.1
2023-02-03T09:23:28.218Z,1001.3
2023-02-03T09:24:44.461Z,1001.5
2023-02-03T09:26:00.711Z,1001.3
2023-02-03T09:27:16.944Z,1001.3
2023-02-03T09:28:33.192Z,1001.3
2023-02-03T09:29:49.416Z,1001.3
2023-02-03T09:31:04.688Z,1001.3
2023-02-03T09:32:20.921Z,1001.2
2023-02-03T09:33:37.152Z,1001.2
2023-02-03T09:34:53.397Z,1001.1
2023-02-03T09:36:09.643Z,1001.3
2023-02-03T09:37:25.871Z,1001.2
2023-02-03T09:38:42.115Z,1001.1
2023-02-03T09:39:58.352Z,1001.2
2023-02-03T09:41:14.591Z,1001.1
2023-02-03T09:42:30.833Z,1001.2
2023-02-03T09:43:47.059Z,1001.1
2023-02-03T09:45:03.309Z,1001.1
2023-02-03T09:46:19.544Z,1001.1
2023-02-03T09:47:34.805Z,1001
2023-02-03T09:48:51.041Z,1001.1
2023-02-03T09:50:07.282Z,1001
2023-02-03T09:51:23.520Z,1000.8
2023-02-03T09:52:39.756Z,1001
2023-02-03T09:53:55.991Z,1000.9
2023-02-03T09:55:12.238Z,1000.9
2023-02-03T09:56:28.479Z,1001.1
2023-02-03T09:57:44.716Z,1000.9
2023-02-03T09:59:00.946Z,1000.9
2023-02-03T10:00:17.190Z,1000.7
2023-02-03T10:01:33.432Z,1000.8
2023-02-03T10:02:49.659Z,1000.8
2023-02-03T10:04:04.925Z,1000.8
2023-02-03T10:05:21.158Z,1000.7
2023-02-03T10:06:37.411Z,1000.8
2023-02-03T10:07:53.633Z,1000.8
2023-02-03T10:09:09.890Z,1000.7
2023-02-03T10:10:26.110Z,1000.8
2023-02-03T10:11:42.348Z,1000.7
2023-02-03T10:12:58.600Z,1000.8
2023-02-03T10:14:14.836Z,1000.6
2023-02-03T10:15:31.080Z,1000.6
2023-02-03T10:16:47.304Z,1000.6
2023-02-03T10:18:03.552Z,1000.5
2023-02-03T10:19:19.782Z,1000.5
2023-02-03T10:20:35.043Z,1000.6
2023-02-03T10:21:51.291Z,1000.5
2023-02-03T10:23:07.524Z,1000.4
2023-02-03T10:24:23.771Z,1000.3
2023-02-03T10:25:40.002Z,1000.4
2023-02-03T10:26:56.232Z,1000.3
2023-02-03T10:28:12.482Z,1000.2
2023-02-03T10:29:28.710Z,1000.2
2023-02-03T10:30:44.949Z,1000.2
2023-02-03T10:32:01.187Z,1000.2
2023-02-03T10:33:17.430Z,1000.2
2023-02-03T10:34:33.682Z,1000.3
2023-02-03T10:35:49.925Z,1000.2
2023-02-03T10:37:05.165Z,1000.3
2023-02-03T10:38:21.415Z,1000.5
2023-02-03T10:39:37.658Z,1000.4
2023-02-03T10:40:53.878Z,1000.4
2023-02-03T10:42:10.119Z,1000.5
2023-02-03T10:43:26.374Z,1000.4
2023-02-03T10:44:42.599Z,1000.4
2023-02-03T10:45:58.841Z,1000.3
2023-02-03T10:47:15.084Z,1000.4
2023-02-03T10:48:31.325Z,1000.3
2023-02-03T10:49:47.560Z,1000.4
2023-02-03T10:51:03.808Z,1000.3
2023-02-03T10:52:20.047Z,1000.3
2023-02-03T10:53:35.301Z,1000.3
2023-02-03T10:54:51.533Z,1000.4
2023-02-03T10:56:07.763Z,1000.4
2023-02-03T10:57:24.019Z,1000.5
2023-02-03T10:58:40.250Z,1000.5
2023-02-03T10:59:56.492Z,1000.5
2023-02-03T11:01:12.719Z,1000.5
2023-02-03T11:02:28.956Z,1000.3
2023-02-03T11:03:45.201Z,1000.5
2023-02-03T11:05:01.440Z,1000.5
2023-02-03T11:06:17.682Z,1000.5
2023-02-03T11:07:33.924Z,1000.5
2023-02-03T11:08:50.166Z,1000.5
2023-02-03T11:10:05.408Z,1000.5
2023-02-03T11:11:21.648Z,1000.5
2023-02-03T11:12:37.885Z,1000.5
2023-02-03T11:13:54.130Z,1000.4
2023-02-03T11:15:10.367Z,1000.4
2023-02-03T11:16:26.612Z,1000.4
2023-02-03T11:17:42.857Z,1000.4
2023-02-03T11:18:59.087Z,1000.3
2023-02-03T11:20:15.337Z,1000.3
2023-02-03T11:21:31.574Z,1000.3
2023-02-03T11:22:47.800Z,1000.3
2023-02-03T11:24:04.041Z,1000.2
2023-02-03T11:25:20.290Z,1000.3
2023-02-03T11:26:35.547Z,1000.3
2023-02-03T11:27:51.780Z,1000.3
2023-02-03T11:29:08.010Z,1000.2
2023-02-03T11:30:24.260Z,1000.2
2023-02-03T11:31:40.485Z,1000.3
2023-02-03T11:32:56.725Z,1000.4
2023-02-03T11:34:12.972Z,1000.2
2023-02-03T11:35:29.206Z,1000.2
2023-02-03T11:36:45.440Z,1000.4
2023-02-03T11:38:01.688Z,1000.4
2023-02-03T11:39:17.920Z,1000.2
2023-02-03T11:40:34.173Z,1000.4
2023-02-03T11:41:50.408Z,1000.4
2023-02-03T11:43:05.663Z,1000.5
2023-02-03T11:44:21.900Z,1000.4
2023-02-03T11:45:38.138Z,1000.4
2023-02-03T11:46:54.367Z,1000.3
2023-02-03T11:48:10.617Z,1000.2
2023-02-03T11:49:26.845Z,1000.2
2023-02-03T11:50:43.087Z,1000.2
2023-02-03T11:51:59.338Z,1000.1
2023-02-03T11:53:15.569Z,1000
2023-02-03T11:54:31.800Z,1000.1
2023-02-03T11:55:48.046Z,1000
2023-02-03T11:57:04.289Z,1000
2023-02-03T11:58:20.528Z,1000.1
2023-02-03T11:59:35.787Z,1000
2023-02-03T12:00:52.019Z,999.9
2023-02-03T12:02:08.253Z,1000.1
2023-02-03T12:03:24.495Z,999.8
2023-02-03T12:04:40.735Z,999.7
2023-02-03T12:05:56.978Z,999.7
2023-02-03T12:07:12.236Z,999.7
2023-02-03T12:08:28.472Z,999.8
2023-02-03T12:09:44.705Z,999.6
2023-02-03T12:11:00.958Z,999.4
2023-02-03T12:12:17.191Z,999.5
2023-02-03T12:13:33.440Z,999.5
2023-02-03T12:14:49.680Z,999.4
2023-02-03T12:16:05.905Z,999.3
2023-02-03T12:17:22.151Z,999.4
2023-02-03T12:18:38.385Z,999.2
2023-02-03T12:19:54.624Z,999.3
2023-02-03T12:21:10.860Z,999.5
2023-02-03T12:22:27.107Z,999.5
2023-02-03T12:23:42.352Z,999.6
2023-02-03T12:24:58.608Z,999.5
2023-02-03T12:26:14.838Z,999.6
2023-02-03T12:27:31.083Z,999.7
2023-02-03T12:28:47.324Z,999.7
2023-02-03T12:30:03.558Z,999.7
2023-02-03T12:31:19.793Z,999.7
2023-02-03T12:32:36.040Z,999.8
2023-02-03T12:33:52.274Z,999.7
2023-02-03T12:35:08.510Z,999.8
2023-02-03T12:36:24.740Z,999.7
2023-02-03T12:37:40.992Z,999.7
2023-02-03T12:38:57.227Z,999.6
2023-02-03T12:40:12.472Z,999.6
2023-02-03T12:41:28.727Z,999.7
2023-02-03T12:42:44.959Z,999.6
2023-02-03T12:44:01.201Z,999.6
2023-02-03T12:45:17.443Z,999.7
2023-02-03T12:46:33.666Z,999.7
2023-02-03T12:47:49.916Z,999.9
2023-02-03T12:49:06.158Z,1000
2023-02-03T12:50:22.389Z,999.8
2023-02-03T12:51:38.639Z,1000
2023-02-03T12:52:54.879Z,1000
2023-02-03T12:54:11.106Z,1000
2023-02-03T12:55:27.343Z,999.8
2023-02-03T12:56:42.615Z,999.9
2023-02-03T12:57:58.834Z,999.9
2023-02-03T12:59:15.083Z,999.7
2023-02-03T13:00:31.319Z,1000
2023-02-03T13:01:47.571Z,1000
2023-02-03T13:03:03.798Z,1000
2023-02-03T13:04:20.041Z,999.9
2023-02-03T13:05:36.272Z,1000
2023-02-03T13:06:52.510Z,1000.1
2023-02-03T13:08:08.756Z,1000.3
2023-02-03T13:09:24.986Z,1000.2
2023-02-03T13:10:41.237Z,1000.3
2023-02-03T13:11:57.473Z,1000.5
2023-02-03T13:13:12.727Z,1000.4
2023-02-03T13:14:28.000Z,1000.6
2023-02-03T13:15:45.206Z,1000.4
2023-02-03T13:17:01.449Z,1000.7
2023-02-03T13:18:17.684Z,1000.4
2023-02-03T13:19:33.911Z,1000.5
2023-02-03T13:20:50.150Z,1000.1
2023-02-03T13:22:06.391Z,1000.5
2023-02-03T13:23:22.641Z,1000.4
2023-02-03T13:24:38.887Z,1000.4
2023-02-03T13:25:55.109Z,1000.5
2023-02-03T13:27:11.350Z,1000.4
2023-02-03T13:28:27.592Z,1000.5
2023-02-03T13:29:42.858Z,1000.5
2023-02-03T13:30:59.093Z,1000.6
2023-02-03T13:32:15.324Z,1000.6
2023-02-03T13:33:31.555Z,1000.6
2023-02-03T13:34:47.797Z,1000.6
2023-02-03T13:36:04.049Z,1000.5
2023-02-03T13:37:20.281Z,1000.7
2023-02-03T13:38:36.519Z,1000.7
2023-02-03T13:39:52.757Z,1000.5
2023-02-03T13:41:08.999Z,1000.5
2023-02-03T13:42:25.244Z,1000.5
2023-02-03T13:43:41.474Z,1000.6
2023-02-03T13:44:57.718Z,1000.5
2023-02-03T13:46:12.977Z,1000.4
2023-02-03T13:47:29.216Z,1000.6
2023-02-03T13:48:45.455Z,1000.6
2023-02-03T13:50:01.694Z,1000.6
2023-02-03T13:51:17.933Z,1000.6
2023-02-03T13:52:34.167Z,1000.7
2023-02-03T13:53:50.404Z,1000.8
2023-02-03T13:55:06.635Z,1000.6
2023-02-03T13:56:22.886Z,1000.7
2023-02-03T13:57:39.128Z,1000.7
2023-02-03T13:58:55.361Z,1001
2023-02-03T14:00:11.597Z,1000.6
2023-02-03T14:01:27.832Z,1001
2023-02-03T14:02:43.101Z,1000.8
2023-02-03T14:03:59.322Z,1000.8
2023-02-03T14:05:15.573Z,1000.9
2023-02-03T14:06:31.808Z,1000.8
2023-02-03T14:07:48.050Z,1000.8
2023-02-03T14:09:04.283Z,1000.7
2023-02-03T14:10:20.525Z,1000.8
2023-02-03T14:11:36.758Z,1000.8
2023-02-03T14:12:53.007Z,1000.4
2023-02-03T14:14:09.235Z,1000.8
2023-02-03T14:15:25.476Z,1000.8
2023-02-03T14:16:41.723Z,1000.9
2023-02-03T14:17:57.952Z,1000.9
2023-02-03T14:19:13.205Z,1000.7
2023-02-03T14:20:29.462Z,1001
2023-02-03T14:21:45.685Z,1000.7
2023-02-03T14:23:01.934Z,1000.6
2023-02-03T14:24:18.180Z,1000.8
2023-02-03T14:25:34.415Z,1000.9
2023-02-03T14:26:50.650Z,1000.9
2023-02-03T14:28:06.892Z,1001
2023-02-03T14:29:23.132Z,1000.9
2023-02-03T14:30:39.375Z,1001
2023-02-03T14:31:55.601Z,1001
2023-02-03T14:33:11.836Z,1001.1
2023-02-03T14:34:28.086Z,1001.1
2023-02-03T14:35:43.339Z,1001.4
2023-02-03T14:36:59.583Z,1001.2
2023-02-03T14:38:15.825Z,1001.3
2023-02-03T14:39:32.043Z,1001.4
2023-02-03T14:40:48.289Z,1001.2
2023-02-03T14:42:04.539Z,1001.3
2023-02-03T14:43:20.779Z,1001.5
2023-02-03T14:44:37.012Z,1001.4
2023-02-03T14:45:53.256Z,1001.5
2023-02-03T14:47:09.477Z,1001.4
2023-02-03T14:48:25.719Z,1001.4
2023-02-03T14:49:41.975Z,1001.6
2023-02-03T14:50:58.205Z,1001.2
2023-02-03T14:52:13.463Z,1001.5
2023-02-03T14:53:29.698Z,1001.4
2023-02-03T14:54:45.933Z,1001.5
2023-02-03T14:56:02.168Z,1001.5
2023-02-03T14:57:18.417Z,1001.4
2023-02-03T14:58:34.664Z,1001.5
2023-02-03T14:59:50.903Z,1001.4
2023-02-03T15:01:07.124Z,1001.5
2023-02-03T15:02:23.365Z,1001.5
2023-02-03T15:03:39.605Z,1001.4
2023-02-03T15:04:55.852Z,1001.4
2023-02-03T15:06:12.089Z,1001.5
2023-02-03T15:07:28.335Z,1001.5
2023-02-03T15:08:43.588Z,1001.4
2023-02-03T15:09:59.812Z,1001.5
2023-02-03T15:11:16.071Z,1001.5
2023-02-03T15:12:32.310Z,1001.6
2023-02-03T15:13:48.544Z,1001.6
2023-02-03T15:15:04.783Z,1001.5
2023-02-03T15:16:21.010Z,1001.6
2023-02-03T15:17:37.250Z,1001.6
2023-02-03T15:18:53.501Z,1001.5
2023-02-03T15:20:09.739Z,1001.5
2023-02-03T15:21:25.977Z,1001.5
2023-02-03T15:22:42.206Z,1001.5
2023-02-03T15:23:58.453Z,1001.5
2023-02-03T15:25:13.714Z,1001.6
2023-02-03T15:26:29.943Z,1001.5
2023-02-03T15:27:46.189Z,1001.6
2023-02-03T15:29:02.427Z,1001.5
2023-02-03T15:30:18.672Z,1001.6
2023-02-03T15:31:34.906Z,1001.6
2023-02-03T15:32:51.151Z,1001.6
2023-02-03T15:34:07.379Z,1001.7
2023-02-03T15:35:23.616Z,1001.8
2023-02-03T15:36:39.857Z,1001.7
2023-02-03T15:37:56.100Z,1001.7
2023-02-03T15:39:12.334Z,1001.8
2023-02-03T15:40:28.574Z,1001.9
2023-02-03T15:41:43.834Z,1001.8
2023-02-03T15:43:00.073Z,1001.7
2023-02-03T15:44:16.305Z,1001.9
2023-02-03T15:45:32.549Z,1001.9
2023-02-03T15:46:48.787Z,1001.8
2023-02-03T15:48:05.039Z,1001.9
2023-02-03T15:49:21.262Z,1001.8
2023-02-03T15:50:37.516Z,1002
2023-02-03T15:51:53.750Z,1001.9
2023-02-03T15:53:09.995Z,1001.9
2023-02-03T15:54:26.218Z,1001.9
2023-02-03T15:55:42.465Z,1001.9
2023-02-03T15:56:58.709Z,1001.9
2023-02-03T15:58:13.964Z,1002
2023-02-03T15:59:30.199Z,1001.9
2023-02-03T16:00:46.437Z,1002
2023-02-03T16:02:02.670Z,1002
2023-02-03T16:03:18.905Z,1001.9
2023-02-03T16:04:35.155Z,1002
2023-02-03T16:05:51.387Z,1002